Keene, CA

1:00 PM PDT on September 17, 2014 (GMT -0700)
Deer Creek, Hart Flat, CA, US | Change Station
CLOSE
Current Station
Personal Weather Station
Location: Keene, CA
Elevation: 2854 ft
Nearby Weather Stations

Elev 2854 ft 35.25 °N, 118.61 °W | Updated 36 seconds ago

Clear
Clear
89.5 °F
Feels Like 87 °F
N
9.0
Wind Variable Wind from NNW
Gusts 10.0 mph

Today
High -- | Low -- °F
--% Chance of Precip.
Yesterday
High -- | Low -- °F
Precip. -- in
6:38 AM 6:58 PM
Waning Crescent, 33% visible
Pressure 29.98 in
Visibility 10.0 miles
Clouds Clear
Heat Index 87 °F
Dew Point 50 °F
Humidity 26%
Rainfall 0.00 in
Snow Depth 0 in , 0 in , 0 in
UV 5.7 out of 12
Pollen 7.70 out of 12
PM2.5 Moderate
Flu Activity Not available.
METAR KTSP 171935Z AUTO 32012KT 10SM CLR 32/05 A2998 RMK AO2

More Conditions Fewer Conditions

Pressure 29.98 in
Visibility 10.0 miles
Clouds Clear
Heat Index 87 °F
Dew Point 50 °F
Humidity 26%
Rainfall 0.00 in
Snow Depth 0 in , 0 in , 0 in
UV 5.7 out of 12
Pollen 7.70 out of 12
PM2.5 Moderate
Flu Activity Not available.
METAR KTSP 171935Z AUTO 32012KT 10SM CLR 32/05 A2998 RMK AO2

More Conditions Fewer Conditions

10-Day Weather Forecast

Almanac

Astronomy

Sep. 17, 2014 Rise Set
Actual Time 6:38 AM PDT 6:58 PM PDT
Civil Twilight 6:13 AM PDT 7:23 PM PDT
Nautical Twilight 5:43 AM PDT 7:53 PM PDT
Astronomical Twilight 5:13 AM PDT 8:23 PM PDT
Moon 12:52 AM PDT 3:02 PM PDT
Length of Visible Light 13h 10m
Length of Day
12h 19m
Tomorrow will be 2m 12s shorter.
Waning Crescent, 33% of the Moon is Illuminated
Today
Waning Crescent
Sep 24
New
Oct 1
First Quarter
Oct 8
Full
Oct 15
Last Quarter

Today's Extremes

State Highs State Lows

Community

WunderPhotos

Upload Photos

1,754,154 photos uploaded!

Nearby

Air Quality

  Air Quality AQ Index Pollutant
Yesterday Moderate
OZONE
Yesterday Good
PM2.5
Current Moderate
PM2.5
Wednesday Moderate
OZONE
Thursday Moderate
OZONE
Friday Moderate
OZONE
Saturday Moderate
OZONE
Sunday Moderate
OZONE

Snow Depth

Station Depth Elevation
Summit Meadow 0 in 9122 ft
CSS Lab 0 in 6900 ft
Adin Mountain 1 in 6200 ft
Leavitt Meadows 0 in 7200 ft

Earthquake Activity

City Distance Mag. Time & Date
Lompoc, California 109 miles 2.5 8:13 AM PDT
2014-09-17
Minimum magnitude displayed is 2.5.

Coastal Water Temperatures

Place Temperature
No Stations Reporting

Nearby Weather Stations